createdAt,value
2019-06-08T00:02:16.532Z,15.60
2019-06-08T00:04:47.747Z,16.82
2019-06-08T00:07:18.926Z,17.23
2019-06-08T00:09:50.645Z,14.95
2019-06-08T00:12:22.991Z,18.35
2019-06-08T00:14:54.531Z,18.20
2019-06-08T00:17:37.228Z,17.05
2019-06-08T00:19:58.549Z,17.85
2019-06-08T00:22:29.832Z,16.82
2019-06-08T00:25:01.083Z,17.40
2019-06-08T00:27:33.798Z,17.45
2019-06-08T00:30:07.965Z,20.82
2019-06-08T00:32:39.217Z,14.90
2019-06-08T00:35:10.619Z,14.28
2019-06-08T00:37:41.767Z,13.95
2019-06-08T00:40:14.709Z,15.93
2019-06-08T00:42:45.923Z,14.23
2019-06-08T00:45:17.651Z,16.05
2019-06-08T00:47:48.983Z,13.40
2019-06-08T00:50:21.033Z,16.62
2019-06-08T00:52:52.585Z,14.15
2019-06-08T00:55:23.861Z,14.55
2019-06-08T00:57:55.183Z,16.65
2019-06-08T01:00:26.862Z,19.40
2019-06-08T01:02:58.171Z,15.63
2019-06-08T01:05:30.253Z,17.55
2019-06-08T01:08:01.362Z,17.73
2019-06-08T01:10:32.505Z,18.52
2019-06-08T01:13:03.791Z,16.60
2019-06-08T01:15:35.257Z,16.37
2019-06-08T01:18:06.544Z,19.27
2019-06-08T01:20:37.751Z,19.55
2019-06-08T01:23:09.163Z,21.07
2019-06-08T01:25:40.484Z,18.82
2019-06-08T01:28:11.657Z,17.00
2019-06-08T01:30:42.891Z,17.98
2019-06-08T01:33:13.906Z,17.70
2019-06-08T01:35:45.068Z,16.70
2019-06-08T01:38:16.325Z,15.88
2019-06-08T01:40:47.467Z,14.90
2019-06-08T01:43:18.690Z,22.15
2019-06-08T01:45:49.844Z,16.52
2019-06-08T01:48:22.300Z,21.40
2019-06-08T01:50:54.735Z,21.55
2019-06-08T01:53:26.874Z,22.60
2019-06-08T01:55:58.043Z,19.30
2019-06-08T01:58:29.448Z,20.60
2019-06-08T02:01:00.684Z,16.48
2019-06-08T02:03:32.750Z,18.12
2019-06-08T02:06:04.300Z,18.15
2019-06-08T02:08:35.655Z,17.82
2019-06-08T02:11:07.263Z,17.48
2019-06-08T02:13:38.550Z,15.55
2019-06-08T02:16:09.754Z,19.00
2019-06-08T02:18:50.211Z,18.23
2019-06-08T02:21:13.699Z,22.05
2019-06-08T02:23:44.712Z,19.77
2019-06-08T02:26:15.944Z,22.00
2019-06-08T02:28:47.136Z,20.32
2019-06-08T02:31:18.481Z,21.17
2019-06-08T02:33:49.538Z,20.75
2019-06-08T02:36:20.543Z,22.02
2019-06-08T02:38:51.591Z,19.15
2019-06-08T02:41:22.747Z,22.73
2019-06-08T02:43:53.883Z,18.73
2019-06-08T02:46:25.478Z,18.98
2019-06-08T02:49:04.110Z,20.82
2019-06-08T02:51:31.272Z,21.60
2019-06-08T02:54:03.405Z,19.67
2019-06-08T02:56:37.316Z,18.32
2019-06-08T02:59:09.376Z,19.82
2019-06-08T03:01:43.190Z,24.23
2019-06-08T03:04:17.012Z,18.27
2019-06-08T03:06:51.306Z,19.07
2019-06-08T03:09:25.769Z,20.10
2019-06-08T03:11:57.618Z,20.17
2019-06-08T03:14:30.608Z,19.95
2019-06-08T03:17:01.951Z,22.42
2019-06-08T03:19:33.307Z,23.80
2019-06-08T03:22:04.751Z,22.20
2019-06-08T03:24:36.600Z,18.20
2019-06-08T03:27:07.751Z,18.82
2019-06-08T03:29:39.483Z,16.40
2019-06-08T03:32:11.602Z,15.85
2019-06-08T03:34:51.077Z,13.98
2019-06-08T03:37:15.736Z,13.25
2019-06-08T03:39:46.857Z,11.73
2019-06-08T03:42:18.232Z,16.48
2019-06-08T03:44:49.419Z,13.53
2019-06-08T03:47:20.653Z,15.50
2019-06-08T03:49:57.075Z,14.15
2019-06-08T03:52:24.585Z,13.53
2019-06-08T03:54:55.548Z,11.03
2019-06-08T03:57:26.462Z,14.38
2019-06-08T03:59:57.503Z,11.20
2019-06-08T04:02:28.817Z,15.80
2019-06-08T04:05:00.066Z,15.80
2019-06-08T04:07:31.158Z,15.00
2019-06-08T04:10:02.764Z,17.10
2019-06-08T04:12:34.004Z,13.10
2019-06-08T04:15:07.323Z,14.00
2019-06-08T04:17:39.699Z,13.78
2019-06-08T04:20:12.196Z,15.65
2019-06-08T04:22:47.144Z,13.55
2019-06-08T04:25:19.088Z,14.98
2019-06-08T04:27:51.027Z,16.60
2019-06-08T04:30:22.703Z,15.40
2019-06-08T04:32:53.653Z,15.78
2019-06-08T04:35:24.618Z,13.45
2019-06-08T04:37:55.577Z,14.80
2019-06-08T04:40:26.680Z,11.45
2019-06-08T04:42:57.751Z,15.18
2019-06-08T04:45:28.889Z,17.45
2019-06-08T04:47:59.984Z,13.70
2019-06-08T04:50:31.105Z,14.95
2019-06-08T04:53:01.925Z,15.58
2019-06-08T04:55:33.174Z,16.80
2019-06-08T04:58:04.502Z,18.00
2019-06-08T05:00:35.626Z,17.90
2019-06-08T05:03:06.909Z,19.27
2019-06-08T05:05:39.379Z,19.30
2019-06-08T05:08:11.609Z,19.85
2019-06-08T05:10:43.253Z,17.62
2019-06-08T05:13:14.618Z,16.70
2019-06-08T05:15:45.585Z,18.12
2019-06-08T05:18:16.593Z,18.48
2019-06-08T05:20:49.346Z,26.60
2019-06-08T05:23:20.315Z,23.85
2019-06-08T05:25:51.351Z,21.12
2019-06-08T05:28:22.499Z,15.88
2019-06-08T05:30:53.359Z,17.45
2019-06-08T05:33:24.421Z,15.83
2019-06-08T05:35:55.531Z,14.55
2019-06-08T05:38:26.511Z,17.42
2019-06-08T05:40:57.551Z,15.80
2019-06-08T05:43:28.404Z,17.35
2019-06-08T05:45:59.527Z,20.00
2019-06-08T05:48:30.818Z,16.75
2019-06-08T05:51:04.279Z,13.45
2019-06-08T05:53:34.507Z,13.53
2019-06-08T05:56:05.842Z,13.78
2019-06-08T05:58:36.843Z,16.93
2019-06-08T06:01:08.059Z,14.73
2019-06-08T06:03:40.331Z,15.28
2019-06-08T06:06:11.501Z,11.75
2019-06-08T06:08:42.691Z,14.25
2019-06-08T06:11:13.783Z,12.47
2019-06-08T06:13:45.385Z,12.85
2019-06-08T06:16:16.497Z,13.93
2019-06-08T06:18:47.637Z,11.75
2019-06-08T06:21:18.706Z,14.38
2019-06-08T06:23:49.765Z,12.63
2019-06-08T06:26:20.991Z,12.05
2019-06-08T06:28:52.210Z,9.98
2019-06-08T06:31:23.362Z,11.43
2019-06-08T06:33:54.435Z,10.10
2019-06-08T06:36:25.733Z,10.85
2019-06-08T06:38:56.965Z,10.23
2019-06-08T06:41:28.036Z,10.72
2019-06-08T06:43:59.012Z,12.20
2019-06-08T06:46:30.131Z,9.73
2019-06-08T06:49:01.302Z,9.80
2019-06-08T06:51:34.010Z,9.33
2019-06-08T06:54:05.230Z,9.95
2019-06-08T06:56:36.405Z,10.50
2019-06-08T06:59:07.528Z,10.60
2019-06-08T07:01:38.603Z,10.40
2019-06-08T07:04:10.471Z,18.70
2019-06-08T07:06:41.556Z,12.70
2019-06-08T07:09:12.679Z,23.95
2019-06-08T07:11:44.504Z,13.70
2019-06-08T07:14:15.953Z,10.23
2019-06-08T07:16:47.762Z,10.40
2019-06-08T07:19:19.080Z,9.78
2019-06-08T07:21:50.328Z,19.32
2019-06-08T07:24:21.480Z,19.55
2019-06-08T07:26:52.778Z,9.80
2019-06-08T07:29:23.907Z,9.28
2019-06-08T07:31:55.416Z,8.00
2019-06-08T07:34:26.607Z,8.60
2019-06-08T07:36:59.594Z,9.25
2019-06-08T07:39:30.814Z,9.05
2019-06-08T07:42:01.797Z,10.05
2019-06-08T07:44:32.835Z,8.45
2019-06-08T07:47:04.022Z,8.30
2019-06-08T07:49:35.244Z,9.83
2019-06-08T07:52:10.354Z,9.90
2019-06-08T07:54:39.198Z,8.83
2019-06-08T07:57:10.236Z,8.33
2019-06-08T07:59:41.359Z,7.62
2019-06-08T08:02:12.453Z,6.30
2019-06-08T08:04:43.446Z,7.72
2019-06-08T08:07:14.860Z,7.75
2019-06-08T08:09:45.984Z,6.78
2019-06-08T08:12:17.262Z,16.87
2019-06-08T08:14:48.760Z,8.18
2019-06-08T08:17:19.926Z,10.60
2019-06-08T08:19:51.318Z,7.40
2019-06-08T08:22:26.160Z,6.45
2019-06-08T08:24:58.116Z,14.60
2019-06-08T08:27:28.124Z,10.45
2019-06-08T08:30:01.709Z,9.03
2019-06-08T08:32:32.352Z,8.20
2019-06-08T08:35:03.671Z,10.18
2019-06-08T08:37:34.970Z,10.05
2019-06-08T08:40:08.779Z,8.95
2019-06-08T08:42:39.747Z,8.60
2019-06-08T08:45:13.117Z,7.45
2019-06-08T08:47:44.326Z,7.47
2019-06-08T08:50:15.688Z,7.35
2019-06-08T08:52:47.831Z,7.85
2019-06-08T08:55:20.629Z,7.15
2019-06-08T08:57:53.263Z,8.38
2019-06-08T09:00:27.988Z,8.78
2019-06-08T09:03:19.336Z,9.43
2019-06-08T09:05:31.237Z,8.80
2019-06-08T09:08:03.864Z,8.68
2019-06-08T09:10:35.355Z,10.30
2019-06-08T09:13:09.276Z,14.28
2019-06-08T09:15:40.894Z,9.93
2019-06-08T09:18:12.049Z,8.90
2019-06-08T09:20:43.299Z,10.05
2019-06-08T09:23:16.506Z,8.45
2019-06-08T09:25:48.351Z,8.13
2019-06-08T09:28:19.772Z,7.60
2019-06-08T09:30:51.977Z,8.78
2019-06-08T09:33:23.390Z,12.73
2019-06-08T09:35:54.892Z,10.08
2019-06-08T09:38:28.485Z,8.98
2019-06-08T09:41:01.220Z,8.58
2019-06-08T09:43:31.697Z,9.45
2019-06-08T09:46:05.263Z,8.83
2019-06-08T09:48:38.050Z,9.75
2019-06-08T09:51:09.254Z,9.43
2019-06-08T09:53:41.846Z,10.20
2019-06-08T09:56:12.982Z,8.90
2019-06-08T09:58:44.081Z,8.45
2019-06-08T10:01:15.487Z,9.13
2019-06-08T10:03:48.236Z,7.87
2019-06-08T10:06:19.431Z,9.95
2019-06-08T10:08:50.440Z,9.93
2019-06-08T10:11:21.467Z,11.18
2019-06-08T10:13:54.374Z,16.80
2019-06-08T10:16:28.028Z,11.18
2019-06-08T10:19:02.301Z,13.18
2019-06-08T10:21:31.312Z,14.65
2019-06-08T10:24:04.804Z,11.83
2019-06-08T10:26:37.508Z,13.68
2019-06-08T10:29:10.316Z,13.22
2019-06-08T10:31:43.535Z,14.55
2019-06-08T10:34:13.814Z,13.95
2019-06-08T10:36:44.850Z,19.23
2019-06-08T10:39:17.479Z,15.25
2019-06-08T10:41:51.667Z,15.58
2019-06-08T10:44:22.417Z,14.33
2019-06-08T10:46:53.575Z,17.37
2019-06-08T10:49:25.125Z,13.00
2019-06-08T10:51:59.012Z,12.18
2019-06-08T10:54:29.048Z,11.90
2019-06-08T10:57:02.568Z,12.40
2019-06-08T10:59:32.784Z,12.37
2019-06-08T11:02:06.203Z,11.22
2019-06-08T11:04:38.871Z,18.02
2019-06-08T11:07:15.812Z,13.93
2019-06-08T11:09:43.757Z,12.60
2019-06-08T11:12:16.162Z,10.78
2019-06-08T11:14:48.152Z,9.70
2019-06-08T11:17:19.405Z,11.88
2019-06-08T11:19:50.497Z,11.10
2019-06-08T11:22:21.615Z,11.85
2019-06-08T11:24:52.736Z,10.82
2019-06-08T11:27:23.872Z,10.98
2019-06-08T11:29:57.453Z,10.78
2019-06-08T11:32:27.881Z,10.95
2019-06-08T11:34:59.881Z,16.52
2019-06-08T11:37:30.805Z,12.68
2019-06-08T11:40:02.144Z,12.00
2019-06-08T11:42:33.438Z,10.35
2019-06-08T11:45:11.057Z,11.78
2019-06-08T11:47:40.636Z,10.93
2019-06-08T11:50:13.354Z,9.98
2019-06-08T11:52:45.058Z,12.60
2019-06-08T11:55:18.132Z,14.93
2019-06-08T11:57:49.477Z,15.93
2019-06-08T12:00:42.001Z,13.38
2019-06-08T12:03:13.156Z,11.88
2019-06-08T12:05:44.438Z,10.40
2019-06-08T12:08:17.645Z,11.55
2019-06-08T12:10:49.165Z,10.53
2019-06-08T12:13:20.460Z,11.15
2019-06-08T12:15:51.595Z,10.13
2019-06-08T12:18:22.886Z,10.18
2019-06-08T12:20:53.967Z,11.12
2019-06-08T12:23:25.165Z,10.90
2019-06-08T12:25:56.202Z,10.20
2019-06-08T12:28:28.033Z,10.35
2019-06-08T12:31:01.044Z,9.65
2019-06-08T12:33:31.937Z,10.72
2019-06-08T12:36:02.768Z,11.65
2019-06-08T12:38:34.738Z,13.58
2019-06-08T12:41:09.187Z,10.10
2019-06-08T12:43:38.742Z,41.28
2019-06-08T12:46:12.593Z,9.30
2019-06-08T12:48:42.592Z,8.65
2019-06-08T12:51:14.881Z,7.45
2019-06-08T12:53:46.494Z,6.40
2019-06-08T12:56:22.247Z,6.62
2019-06-08T12:58:51.061Z,6.65
2019-06-08T13:01:22.251Z,6.20
2019-06-08T13:03:53.172Z,6.78
2019-06-08T13:06:24.243Z,5.20
2019-06-08T13:08:57.492Z,4.50
2019-06-08T13:11:28.406Z,3.83
2019-06-08T13:13:59.574Z,3.67
2019-06-08T13:16:30.558Z,4.12
2019-06-08T13:19:01.554Z,3.70
2019-06-08T13:21:35.385Z,5.45
2019-06-08T13:24:05.468Z,4.08
2019-06-08T13:26:36.673Z,3.37
2019-06-08T13:29:09.188Z,3.50
2019-06-08T13:31:40.386Z,4.08
2019-06-08T13:34:14.277Z,3.17
2019-06-08T13:36:44.148Z,3.47
2019-06-08T13:39:15.261Z,3.00
2019-06-08T13:41:48.177Z,6.17
2019-06-08T13:44:19.819Z,4.67
2019-06-08T13:46:50.929Z,3.30
2019-06-08T13:49:25.544Z,5.85
2019-06-08T13:51:54.881Z,3.50
2019-06-08T13:54:30.811Z,2.80
2019-06-08T13:56:59.112Z,2.00
2019-06-08T13:59:30.938Z,2.37
2019-06-08T14:02:02.125Z,2.42
2019-06-08T14:04:34.905Z,2.20
2019-06-08T14:07:07.777Z,2.12
2019-06-08T14:09:38.933Z,2.35
2019-06-08T14:12:10.090Z,2.17
2019-06-08T14:14:41.306Z,2.20
2019-06-08T14:17:12.686Z,1.90
2019-06-08T14:19:43.606Z,2.37
2019-06-08T14:22:14.653Z,1.90
2019-06-08T14:24:47.833Z,1.75
2019-06-08T14:27:19.332Z,1.57
2019-06-08T14:29:51.355Z,2.05
2019-06-08T14:32:22.531Z,1.75
2019-06-08T14:34:53.566Z,2.10
2019-06-08T14:37:24.932Z,1.80
2019-06-08T14:39:57.438Z,2.55
2019-06-08T14:42:31.353Z,3.27
2019-06-08T14:45:01.526Z,2.72
2019-06-08T14:47:32.788Z,2.20
2019-06-08T14:50:04.239Z,2.33
2019-06-08T14:52:37.926Z,10.58
2019-06-08T14:55:08.158Z,4.12
2019-06-08T14:57:40.286Z,3.22
2019-06-08T15:00:13.473Z,1.95
2019-06-08T15:02:44.542Z,3.22
2019-06-08T15:05:18.140Z,2.42
2019-06-08T15:07:48.573Z,2.10
2019-06-08T15:10:21.475Z,2.92
2019-06-08T15:12:53.706Z,2.90
2019-06-08T15:15:25.870Z,2.20
2019-06-08T15:17:58.397Z,2.00
2019-06-08T15:20:30.346Z,6.47
2019-06-08T15:23:01.541Z,9.33
2019-06-08T15:25:33.048Z,5.78
2019-06-08T15:28:04.257Z,4.72
2019-06-08T15:30:38.031Z,9.28
2019-06-08T15:33:09.415Z,4.97
2019-06-08T15:35:40.543Z,3.25
2019-06-08T15:38:11.909Z,2.05
2019-06-08T15:40:43.361Z,2.50
2019-06-08T15:43:14.485Z,2.92
2019-06-08T15:45:48.901Z,3.60
2019-06-08T15:48:20.471Z,5.05
2019-06-08T15:50:51.277Z,8.75
2019-06-08T15:53:22.509Z,6.80
2019-06-08T15:55:53.825Z,2.37
2019-06-08T15:58:24.887Z,2.20
2019-06-08T16:00:56.051Z,2.22
2019-06-08T16:03:27.444Z,10.88
2019-06-08T16:05:58.667Z,8.30
2019-06-08T16:08:30.285Z,8.98
2019-06-08T16:11:01.703Z,3.50
2019-06-08T16:13:33.055Z,3.17
2019-06-08T16:16:04.239Z,3.20
2019-06-08T16:18:36.000Z,2.83
2019-06-08T16:21:07.271Z,2.83
2019-06-08T16:23:38.433Z,2.95
2019-06-08T16:26:09.632Z,2.75
2019-06-08T16:28:40.581Z,2.20
2019-06-08T16:31:13.403Z,8.70
2019-06-08T16:33:44.450Z,6.50
2019-06-08T16:36:15.774Z,3.30
2019-06-08T16:38:47.044Z,2.52
2019-06-08T16:41:18.062Z,3.08
2019-06-08T16:43:49.674Z,2.33
2019-06-08T16:46:20.687Z,12.03
2019-06-08T16:48:51.843Z,6.70
2019-06-08T16:51:22.991Z,2.98
2019-06-08T16:53:54.062Z,2.77
2019-06-08T16:56:25.268Z,2.62
2019-06-08T16:58:56.335Z,2.45
2019-06-08T17:01:28.364Z,2.67
2019-06-08T17:03:59.521Z,2.70
2019-06-08T17:06:31.158Z,2.30
2019-06-08T17:09:02.497Z,10.32
2019-06-08T17:11:33.755Z,6.25
2019-06-08T17:14:05.410Z,3.00
2019-06-08T17:16:36.552Z,2.25
2019-06-08T17:19:07.662Z,4.55
2019-06-08T17:21:38.624Z,4.65
2019-06-08T17:24:09.952Z,2.40
2019-06-08T17:26:40.908Z,2.00
2019-06-08T17:29:11.988Z,2.17
2019-06-08T17:31:42.920Z,2.40
2019-06-08T17:34:13.978Z,2.33
2019-06-08T17:36:45.049Z,2.10
2019-06-08T17:39:16.223Z,1.60
2019-06-08T17:41:47.396Z,2.30
2019-06-08T17:44:20.062Z,1.30
2019-06-08T17:46:51.526Z,1.35
2019-06-08T17:49:22.486Z,1.52
2019-06-08T17:51:53.808Z,2.17
2019-06-08T17:54:25.035Z,1.50
2019-06-08T17:56:56.334Z,1.50
2019-06-08T17:59:28.840Z,5.75
2019-06-08T18:01:59.991Z,4.72
2019-06-08T18:04:31.394Z,2.60
2019-06-08T18:07:02.620Z,2.22
2019-06-08T18:09:33.791Z,3.20
2019-06-08T18:12:07.618Z,2.15
2019-06-08T18:14:41.705Z,1.90
2019-06-08T18:17:11.640Z,1.70
2019-06-08T18:19:46.248Z,2.17
2019-06-08T18:22:18.437Z,2.20
2019-06-08T18:24:48.630Z,2.50
2019-06-08T18:27:19.565Z,2.15
2019-06-08T18:29:50.800Z,7.58
2019-06-08T18:32:21.838Z,5.40
2019-06-08T18:34:53.122Z,5.42
2019-06-08T18:37:24.330Z,5.83
2019-06-08T18:39:57.840Z,3.47
2019-06-08T18:42:28.664Z,3.83
2019-06-08T18:44:59.660Z,3.50
2019-06-08T18:47:30.785Z,2.95
2019-06-08T18:50:01.941Z,3.20
2019-06-08T18:52:32.868Z,2.37
2019-06-08T18:55:08.175Z,2.10
2019-06-08T18:57:39.873Z,2.10
2019-06-08T19:00:12.414Z,2.30
2019-06-08T19:02:46.250Z,2.20
2019-06-08T19:05:20.730Z,1.70
2019-06-08T19:07:51.934Z,2.80
2019-06-08T19:10:37.863Z,3.58
2019-06-08T19:13:08.857Z,7.40
2019-06-08T19:15:44.274Z,11.93
2019-06-08T19:18:13.148Z,16.82
2019-06-08T19:20:47.226Z,16.07
2019-06-08T19:23:20.665Z,10.80
2019-06-08T19:25:49.811Z,7.37
2019-06-08T19:28:35.220Z,4.72
2019-06-08T19:30:54.031Z,4.08
2019-06-08T19:33:27.590Z,5.15
2019-06-08T19:35:58.447Z,4.85
2019-06-08T19:38:29.506Z,4.83
2019-06-08T19:41:00.621Z,8.98
2019-06-08T19:43:31.770Z,8.70
2019-06-08T19:46:02.718Z,10.13
2019-06-08T19:48:33.549Z,4.92
2019-06-08T19:51:04.530Z,4.55
2019-06-08T19:53:41.622Z,7.40
2019-06-08T19:56:08.110Z,5.85
2019-06-08T19:58:52.404Z,5.87
2019-06-08T20:01:12.263Z,4.70
2019-06-08T20:03:44.711Z,5.28
2019-06-08T20:06:17.601Z,5.20
2019-06-08T20:08:51.139Z,4.37
2019-06-08T20:11:21.227Z,3.50
2019-06-08T20:13:52.312Z,3.42
2019-06-08T20:16:23.360Z,3.62
2019-06-08T20:18:54.605Z,9.18
2019-06-08T20:21:27.586Z,10.15
2019-06-08T20:23:58.713Z,8.40
2019-06-08T20:26:30.047Z,6.00
2019-06-08T20:29:12.106Z,4.97
2019-06-08T20:31:33.841Z,4.20
2019-06-08T20:34:06.948Z,4.22
2019-06-08T20:36:37.743Z,4.00
2019-06-08T20:39:09.586Z,4.20
2019-06-08T20:41:41.754Z,3.98
2019-06-08T20:44:12.888Z,4.10
2019-06-08T20:46:44.123Z,3.50
2019-06-08T20:49:17.164Z,3.95
2019-06-08T20:51:49.419Z,4.65
2019-06-08T20:54:20.665Z,4.97
2019-06-08T20:56:52.133Z,4.70
2019-06-08T20:59:30.950Z,4.83
2019-06-08T21:01:58.861Z,4.67
2019-06-08T21:04:30.276Z,5.72
2019-06-08T21:07:01.351Z,4.80
2019-06-08T21:09:32.383Z,4.40
2019-06-08T21:12:03.799Z,3.85
2019-06-08T21:14:34.693Z,5.12
2019-06-08T21:17:07.644Z,4.50
2019-06-08T21:19:38.501Z,4.37
2019-06-08T21:22:11.035Z,4.60
2019-06-08T21:24:42.001Z,3.83
2019-06-08T21:27:12.986Z,3.92
2019-06-08T21:29:49.082Z,4.33
2019-06-08T21:32:17.751Z,4.87
2019-06-08T21:34:51.736Z,4.55
2019-06-08T21:37:21.541Z,4.30
2019-06-08T21:39:55.371Z,3.77
2019-06-08T21:42:27.653Z,3.83
2019-06-08T21:44:59.995Z,3.37
2019-06-08T21:47:30.611Z,3.30
2019-06-08T21:50:01.728Z,3.22
2019-06-08T21:52:32.709Z,3.47
2019-06-08T21:55:03.850Z,3.42
2019-06-08T21:57:36.983Z,3.87
2019-06-08T22:00:29.407Z,3.80
2019-06-08T22:02:47.831Z,4.05
2019-06-08T22:05:18.362Z,3.40
2019-06-08T22:07:50.095Z,3.55
2019-06-08T22:10:21.401Z,2.90
2019-06-08T22:12:53.829Z,2.70
2019-06-08T22:15:27.152Z,3.70
2019-06-08T22:18:00.144Z,3.33
2019-06-08T22:20:31.157Z,4.25
2019-06-08T22:23:02.061Z,3.98
2019-06-08T22:25:33.383Z,3.55
2019-06-08T22:28:07.026Z,3.72
2019-06-08T22:30:42.738Z,4.20
2019-06-08T22:33:09.802Z,3.65
2019-06-08T22:35:40.850Z,4.00
2019-06-08T22:38:11.825Z,3.80
2019-06-08T22:40:42.950Z,3.87
2019-06-08T22:43:14.080Z,3.40
2019-06-08T22:45:45.131Z,2.98
2019-06-08T22:48:18.638Z,3.02
2019-06-08T22:50:48.676Z,3.77
2019-06-08T22:53:19.546Z,4.47
2019-06-08T22:55:50.518Z,4.45
2019-06-08T22:58:21.598Z,4.55
2019-06-08T23:00:53.197Z,6.40
2019-06-08T23:03:25.130Z,4.75
2019-06-08T23:05:59.744Z,4.37
2019-06-08T23:08:29.184Z,5.65
2019-06-08T23:11:02.066Z,5.78
2019-06-08T23:13:33.430Z,5.83
2019-06-08T23:16:06.215Z,5.28
2019-06-08T23:18:37.421Z,4.30
2019-06-08T23:21:09.121Z,3.50
2019-06-08T23:23:40.107Z,3.47
2019-06-08T23:26:11.243Z,3.20
2019-06-08T23:28:42.234Z,3.45
2019-06-08T23:31:22.522Z,3.40
2019-06-08T23:33:48.299Z,3.00
2019-06-08T23:36:45.641Z,3.72
2019-06-08T23:38:52.208Z,2.52
2019-06-08T23:41:23.444Z,2.37
2019-06-08T23:43:54.689Z,2.80
2019-06-08T23:46:27.363Z,3.33
2019-06-08T23:49:01.521Z,3.92
2019-06-08T23:51:31.852Z,3.40
2019-06-08T23:54:04.262Z,3.60
2019-06-08T23:56:37.062Z,3.50
2019-06-08T23:59:09.454Z,3.50
